Time;durP1;ratioP1;P1;durP2;ratioP2;P2;SDS_P1;SDS_P2;PMS_P1;PMS_P2;Temp;Humidity;BMP_temperature;BMP_pressure;BME280_temperature;BME280_humidity;BME280_pressure;Samples;Min_cycle;Max_cycle;Signal;HPM_P1;HPM_P2
2022/08/06 00:01:00;;;;;;;4.75;4.43;;;19.30;99.90;;;19.76;88.47;98430.41;5197495;28;20204;-64
2022/08/06 00:03:36;;;;;;;5.45;4.78;;;19.20;99.90;;;19.79;91.10;98429.63;5203124;28;20230;-62
2022/08/06 00:06:11;;;;;;;4.97;4.57;;;19.20;99.90;;;19.74;91.83;98424.34;5203886;28;20235;-63
2022/08/06 00:08:44;;;;;;;4.07;3.78;;;19.20;99.90;;;19.74;92.26;98426.94;5198318;28;20287;-64
2022/08/06 00:11:19;;;;;;;4.32;3.92;;;19.10;99.90;;;19.69;90.20;98433.69;5206486;28;20213;-64
2022/08/06 00:13:55;;;;;;;4.32;4.00;;;19.10;99.90;;;19.65;91.25;98429.22;5198763;28;20267;-64
2022/08/06 00:16:32;;;;;;;4.80;4.40;;;19.10;99.90;;;19.65;91.51;98430.91;5198563;28;20194;-63
2022/08/06 00:19:11;;;;;;;4.97;4.57;;;19.00;99.90;;;19.61;90.64;98442.03;5196874;28;20214;-63
2022/08/06 00:21:52;;;;;;;4.70;4.30;;;19.00;99.90;;;19.67;91.51;98440.53;5197783;28;20209;-64
2022/08/06 00:24:27;;;;;;;4.68;4.38;;;19.00;99.90;;;19.53;88.67;98431.41;5201749;28;20251;-64
2022/08/06 00:27:02;;;;;;;5.95;4.47;;;18.80;99.90;;;19.49;89.15;98429.56;5198507;28;20205;-64
2022/08/06 00:29:44;;;;;;;5.13;4.72;;;18.70;99.90;;;19.54;91.37;98431.47;5199384;28;20665;-63
2022/08/06 00:32:24;;;;;;;5.50;5.10;;;18.80;99.90;;;19.57;91.40;98417.69;5201312;28;20305;-64
2022/08/06 00:35:00;;;;;;;4.80;4.40;;;18.80;99.90;;;19.65;91.63;98425.72;5198707;28;20213;-64
2022/08/06 00:37:34;;;;;;;5.28;4.78;;;18.80;99.90;;;19.66;91.68;98427.50;5201212;28;20229;-64
2022/08/06 00:40:29;;;;;;;4.95;4.22;;;18.90;99.90;;;19.68;92.33;98421.53;5202690;28;20207;-64
2022/08/06 00:43:06;;;;;;;4.55;4.15;;;18.90;99.90;;;19.72;91.48;98419.94;5207100;28;20241;-64
2022/08/06 00:45:46;;;;;;;4.75;4.30;;;18.90;99.90;;;19.66;90.48;98425.81;5204446;28;20206;-64
2022/08/06 00:48:20;;;;;;;4.80;4.40;;;18.80;99.90;;;19.64;91.59;98427.44;5201324;28;20264;-64
2022/08/06 00:51:13;;;;;;;5.35;4.85;;;18.80;99.90;;;19.66;92.75;98438.78;5193370;28;20213;-64
2022/08/06 00:53:53;;;;;;;5.18;4.45;;;18.80;99.90;;;19.67;93.38;98437.06;5201953;28;20255;-64
2022/08/06 00:56:30;;;;;;;4.70;4.40;;;18.80;99.90;;;19.65;92.60;98442.19;5200423;28;20678;-64
2022/08/06 00:59:09;;;;;;;4.22;3.92;;;18.80;99.90;;;19.66;91.08;98437.88;5196465;28;20206;-64
2022/08/06 01:01:43;;;;;;;4.18;3.90;;;18.70;99.90;;;19.62;91.38;98455.03;5203068;28;20620;-64
2022/08/06 01:04:23;;;;;;;4.93;4.45;;;18.60;99.90;;;19.68;90.95;98452.66;5195913;28;20202;-64
2022/08/06 01:06:59;;;;;;;4.80;4.40;;;18.60;99.90;;;19.64;92.17;98455.97;5204102;28;20709;-64
2022/08/06 01:09:36;;;;;;;4.60;4.20;;;18.70;99.90;;;19.64;92.79;98465.47;5198750;28;20209;-64
2022/08/06 01:12:29;;;;;;;4.90;4.50;;;18.60;99.90;;;19.68;92.04;98456.97;5202361;28;20580;-64
2022/08/06 01:15:08;;;;;;;5.43;4.57;;;18.60;99.90;;;19.63;90.80;98458.50;5196608;28;20194;-64
2022/08/06 01:17:56;;;;;;;5.00;4.60;;;18.50;99.90;;;19.56;92.42;98457.44;5197834;28;20197;-64
2022/08/06 01:20:52;;;;;;;5.32;4.82;;;18.50;99.90;;;19.28;92.19;98469.50;5194498;28;20210;-64
2022/08/06 01:24:03;;;;;;;5.20;4.80;;;18.40;99.90;;;19.26;93.57;98476.38;5200248;28;20229;-64
2022/08/06 01:26:45;;;;;;;5.03;4.63;;;18.30;99.90;;;19.20;94.33;98471.00;5200002;28;20264;-64
2022/08/06 01:29:32;;;;;;;5.20;4.70;;;18.30;99.90;;;19.32;93.44;98473.97;5191835;28;20285;-64
2022/08/06 01:32:14;;;;;;;5.13;4.60;;;18.40;99.90;;;19.25;94.25;98461.63;5197202;28;20670;-64
2022/08/06 01:34:54;;;;;;;5.47;4.63;;;18.30;99.90;;;19.19;94.38;98456.25;5197516;28;20225;-64
2022/08/06 01:37:35;;;;;;;5.35;4.90;;;18.30;99.90;;;19.13;94.06;98456.06;5196665;28;20239;-64
2022/08/06 01:40:17;;;;;;;5.45;5.05;;;18.30;99.90;;;19.13;94.60;98469.03;5194927;28;20210;-65
2022/08/06 01:42:55;;;;;;;5.40;4.90;;;18.30;99.90;;;19.17;95.47;98467.41;5207002;28;20267;-63
2022/08/06 01:45:34;;;;;;;5.13;4.72;;;18.40;99.90;;;19.29;95.22;98466.09;5200144;28;20867;-64
2022/08/06 01:48:29;;;;;;;5.68;4.65;;;18.40;99.90;;;19.28;95.02;98456.56;5198029;28;20220;-64
2022/08/06 01:51:07;;;;;;;5.03;4.63;;;18.40;99.90;;;19.43;93.27;98469.16;5193982;28;20202;-64
2022/08/06 01:54:04;;;;;;;4.95;4.50;;;18.40;99.90;;;19.36;93.75;98462.88;5192286;28;20668;-64
2022/08/06 01:56:43;;;;;;;4.65;4.25;;;18.40;99.90;;;19.36;93.90;98470.66;5202851;28;20189;-64
2022/08/06 01:59:35;;;;;;;5.07;4.68;;;18.40;99.90;;;19.38;94.43;98467.25;5193010;28;20214;-64
2022/08/06 02:02:16;;;;;;;4.97;4.50;;;18.40;99.90;;;19.29;93.87;98468.69;5188752;28;20791;-64
2022/08/06 02:04:54;;;;;;;5.00;4.60;;;18.40;99.90;;;19.25;93.77;98474.59;5199049;28;20201;-64
2022/08/06 02:07:37;;;;;;;4.70;4.30;;;18.30;99.90;;;19.39;93.30;98461.22;5194741;28;20206;-64
2022/08/06 02:10:35;;;;;;;5.30;4.80;;;18.40;99.90;;;19.29;92.67;98468.69;5195792;28;20205;-64
2022/08/06 02:13:13;;;;;;;5.25;4.75;;;18.30;99.90;;;19.30;93.17;98473.03;5196044;28;20218;-64
2022/08/06 02:15:47;;;;;;;5.22;4.30;;;18.30;99.90;;;19.28;93.93;98472.09;5191933;28;20208;-64
2022/08/06 02:18:38;;;;;;;5.65;5.07;;;18.30;99.90;;;19.29;94.62;98470.41;5198999;28;20590;-64
2022/08/06 02:21:22;;;;;;;4.82;4.43;;;18.30;99.90;;;19.23;94.97;98478.88;5202089;28;20578;-64
2022/08/06 02:24:08;;;;;;;5.40;4.90;;;18.40;99.90;;;19.18;95.22;98483.03;5190721;28;20222;-64
2022/08/06 02:26:42;;;;;;;4.80;4.50;;;18.30;99.90;;;19.25;95.23;98478.91;5199283;28;20662;-64
2022/08/06 02:29:20;;;;;;;5.00;4.60;;;18.40;99.90;;;19.25;94.91;98486.69;5191293;28;20650;-64
2022/08/06 02:31:54;;;;;;;5.63;4.82;;;18.30;99.90;;;19.27;95.52;98495.41;5197511;28;20213;-64
2022/08/06 02:34:35;;;;;;;5.05;4.65;;;18.40;99.90;;;19.30;94.92;98488.59;5192471;28;21627;-64
2022/08/06 02:37:23;;;;;;;5.15;4.70;;;18.40;99.90;;;19.36;94.21;98478.41;5197618;28;20296;-64
2022/08/06 02:40:23;;;;;;;5.65;5.15;;;18.50;99.90;;;19.34;94.98;98474.91;5190878;28;20602;-64
2022/08/06 02:43:04;;;;;;;5.28;4.78;;;18.40;99.90;;;19.33;94.21;98485.22;5198569;28;20233;-64
2022/08/06 02:45:45;;;;;;;4.20;3.90;;;18.30;99.90;;;19.35;92.75;98493.94;5196243;28;20301;-64
2022/08/06 02:48:40;;;;;;;4.75;4.35;;;18.30;99.90;;;19.33;92.06;98496.47;5193396;28;20663;-64
2022/08/06 02:51:29;;;;;;;4.03;3.72;;;18.30;99.90;;;19.40;91.11;98502.75;5199141;28;20247;-64
2022/08/06 02:54:29;;;;;;;4.18;3.85;;;18.30;99.90;;;19.31;91.39;98500.72;5196738;28;20197;-64
2022/08/06 02:57:06;;;;;;;5.53;4.03;;;18.30;99.90;;;19.31;91.75;98498.13;5193913;28;20662;-64
2022/08/06 02:59:46;;;;;;;4.35;4.05;;;18.30;99.90;;;19.30;91.38;98486.00;5199608;28;20651;-64
2022/08/06 03:02:29;;;;;;;4.50;4.18;;;18.30;99.90;;;19.19;90.06;98479.59;5193120;28;20218;-64
2022/08/06 03:05:06;;;;;;;4.57;3.95;;;18.20;99.90;;;19.18;91.15;98476.97;5189456;28;20205;-64
2022/08/06 03:07:43;;;;;;;4.90;4.43;;;18.20;99.90;;;19.22;91.35;98486.59;5193671;28;20252;-64
2022/08/06 03:10:20;;;;;;;4.28;3.97;;;18.30;99.90;;;19.25;91.75;98479.78;5189038;28;20190;-64
2022/08/06 03:13:04;;;;;;;5.90;4.20;;;18.30;99.90;;;19.32;92.11;98486.94;5193909;28;20253;-64
2022/08/06 03:15:44;;;;;;;3.75;3.47;;;18.40;99.90;;;19.30;92.06;98493.78;5199850;28;20704;-64
2022/08/06 03:18:34;;;;;;;4.35;4.05;;;18.40;99.90;;;19.23;90.75;98489.25;5196168;28;20249;-64
2022/08/06 03:21:09;;;;;;;4.20;3.90;;;18.30;99.90;;;19.16;90.74;98487.25;5192091;28;20261;-64
2022/08/06 03:23:44;;;;;;;4.20;3.80;;;18.20;99.90;;;19.10;90.13;98487.06;5190612;28;20272;-64
2022/08/06 03:26:18;;;;;;;4.47;4.18;;;18.10;99.90;;;19.13;90.25;98492.34;5190542;28;20225;-64
2022/08/06 03:28:55;;;;;;;4.57;4.18;;;18.10;99.90;;;19.06;91.54;98491.28;5190126;28;20673;-64
2022/08/06 03:31:29;;;;;;;4.10;3.80;;;18.10;99.90;;;19.05;90.62;98504.16;5199974;28;20621;-64
2022/08/06 03:34:07;;;;;;;4.47;3.97;;;18.10;99.90;;;19.08;90.78;98499.06;5198079;28;20305;-64
2022/08/06 03:36:41;;;;;;;4.00;3.65;;;18.10;99.90;;;19.09;89.55;98506.03;5201812;28;20301;-64
2022/08/06 03:39:20;;;;;;;6.25;3.55;;;18.10;99.90;;;18.98;86.64;98505.66;5199838;28;20225;-64
2022/08/06 03:41:55;;;;;;;3.95;3.65;;;18.00;99.90;;;18.99;88.36;98515.19;5204420;28;20589;-64
2022/08/06 03:44:41;;;;;;;3.63;3.42;;;18.00;99.90;;;19.00;88.25;98510.88;5207340;28;20206;-64
2022/08/06 03:47:24;;;;;;;3.40;3.20;;;18.00;99.90;;;18.93;84.35;98520.16;5204161;28;20681;-64
2022/08/06 03:50:22;;;;;;;3.10;2.90;;;18.00;99.90;;;18.93;83.64;98524.47;5197880;28;20208;-64
2022/08/06 03:53:03;;;;;;;3.33;3.03;;;17.90;99.90;;;18.94;84.63;98526.22;5207006;28;20244;-64
2022/08/06 03:55:39;;;;;;;3.70;3.08;;;18.00;99.90;;;18.92;82.96;98520.13;5204316;28;20649;-64
2022/08/06 03:58:16;;;;;;;3.90;3.58;;;17.90;99.90;;;18.96;84.40;98527.16;5202853;28;20194;-64
2022/08/06 04:01:05;;;;;;;3.63;3.33;;;18.00;99.90;;;18.97;86.46;98523.75;5200726;28;20220;-64
2022/08/06 04:03:42;;;;;;;4.00;3.50;;;18.00;99.90;;;18.88;87.29;98526.91;5204819;28;20312;-64
2022/08/06 04:06:19;;;;;;;6.75;3.63;;;17.90;99.90;;;18.87;88.07;98532.91;5201960;28;20194;-64
2022/08/06 04:08:54;;;;;;;3.83;3.50;;;17.90;99.90;;;18.87;88.80;98528.59;5198532;28;20200;-64
2022/08/06 04:11:29;;;;;;;3.88;3.58;;;18.00;99.90;;;18.92;89.21;98528.78;5198061;28;20193;-64
2022/08/06 04:14:23;;;;;;;3.55;3.05;;;18.00;99.90;;;18.84;82.96;98528.50;5194816;28;20221;-64
2022/08/06 04:17:03;;;;;;;3.55;3.00;;;17.90;99.90;;;18.83;79.75;98518.09;5200613;28;20211;-64
2022/08/06 04:19:38;;;;;;;3.88;3.40;;;17.80;99.90;;;18.92;79.82;98527.91;5202164;28;20284;-64
2022/08/06 04:22:16;;;;;;;3.80;2.88;;;17.90;99.90;;;18.81;78.98;98520.63;5200895;28;20224;-64
2022/08/06 04:25:10;;;;;;;3.70;3.28;;;17.80;99.90;;;18.86;80.16;98524.28;5201851;28;20751;-64
2022/08/06 04:27:49;;;;;;;3.15;2.85;;;17.90;99.90;;;18.87;79.75;98522.56;5195259;28;20229;-64
2022/08/06 04:30:27;;;;;;;3.03;2.80;;;17.90;99.90;;;18.93;78.95;98524.47;5194864;28;20191;-64
2022/08/06 04:33:04;;;;;;;3.33;3.13;;;17.90;99.90;;;18.89;79.58;98534.72;5197937;28;20615;-64
2022/08/06 04:35:40;;;;;;;3.63;3.20;;;17.90;99.90;;;18.85;79.98;98537.16;5190430;28;20199;-64
2022/08/06 04:38:34;;;;;;;3.38;3.08;;;17.90;99.90;;;18.86;81.28;98544.13;5190913;28;20212;-64
2022/08/06 04:41:13;;;;;;;3.20;2.97;;;17.90;99.90;;;18.92;81.85;98552.09;5198299;28;20666;-64
2022/08/06 04:43:54;;;;;;;3.40;3.20;;;17.90;99.90;;;18.94;82.26;98562.50;5202160;28;20714;-65
2022/08/06 04:46:31;;;;;;;3.20;2.90;;;17.90;99.90;;;18.87;76.52;98557.09;5201918;28;20209;-63
2022/08/06 04:49:05;;;;;;;3.42;3.13;;;17.90;99.90;;;18.84;78.43;98566.47;5191984;28;20202;-63
2022/08/06 04:51:39;;;;;;;4.25;3.72;;;17.90;99.90;;;18.92;79.83;98569.34;5196327;28;20256;-63
2022/08/06 04:54:32;;;;;;;3.40;3.10;;;18.00;99.90;;;18.85;79.59;98569.13;5199854;28;20272;-64
2022/08/06 04:57:07;;;;;;;3.13;2.92;;;17.90;99.90;;;18.94;79.73;98571.16;5194509;28;20585;-64
2022/08/06 04:59:55;;;;;;;3.45;3.08;;;18.00;99.90;;;19.04;78.93;98572.38;5191049;28;20202;-64
2022/08/06 05:02:30;;;;;;;3.40;2.90;;;18.10;99.90;;;19.13;78.03;98585.66;5198532;28;20221;-64
2022/08/06 05:05:08;;;;;;;3.17;2.97;;;18.20;99.90;;;19.25;75.25;98578.28;5192942;28;20202;-64
2022/08/06 05:07:43;;;;;;;3.45;2.95;;;18.30;99.90;;;19.28;75.13;98575.78;5198593;28;20210;-63
2022/08/06 05:10:44;;;;;;;3.78;3.30;;;18.30;99.90;;;19.31;74.99;98591.44;5196962;28;20658;-63
2022/08/06 05:13:22;;;;;;;3.03;2.83;;;18.30;99.90;;;19.38;74.43;98596.88;5188350;28;20269;-63
2022/08/06 05:16:14;;;;;;;3.78;3.00;;;18.40;99.90;;;19.42;73.88;98604.78;5206601;28;20198;-63
2022/08/06 05:18:54;;;;;;;2.75;2.55;;;18.50;99.90;;;19.47;73.29;98607.56;5199520;28;20203;-63
2022/08/06 05:21:49;;;;;;;3.40;2.85;;;18.50;99.90;;;19.47;72.37;98607.56;5199517;28;20232;-63
2022/08/06 05:24:43;;;;;;;2.90;2.60;;;18.40;99.90;;;19.44;72.71;98603.13;5197502;28;20205;-64
2022/08/06 05:27:36;;;;;;;3.70;3.13;;;18.40;99.90;;;19.36;73.33;98605.47;5197071;28;20672;-64
2022/08/06 05:30:29;;;;;;;3.10;2.90;;;18.40;99.90;;;19.41;74.51;98607.34;5199656;28;20655;-64
2022/08/06 05:33:04;;;;;;;3.15;2.85;;;18.40;99.90;;;19.32;74.17;98611.38;5197334;28;20229;-63
2022/08/06 05:35:39;;;;;;;3.30;3.00;;;18.30;99.90;;;19.32;74.33;98607.91;5199509;28;20202;-63
2022/08/06 05:38:35;;;;;;;3.20;3.00;;;18.40;99.90;;;19.22;71.27;98614.47;5193559;28;20213;-64
2022/08/06 05:41:12;;;;;;;3.33;2.70;;;18.30;99.90;;;19.20;73.65;98610.97;5193126;28;20220;-64
2022/08/06 05:43:45;;;;;;;3.47;3.17;;;18.30;99.90;;;19.41;74.46;98612.53;5197117;28;20740;-64
2022/08/06 05:46:40;;;;;;;3.28;2.97;;;18.50;99.90;;;19.65;72.61;98613.38;5194153;28;20203;-64
2022/08/06 05:49:21;;;;;;;2.85;2.65;;;18.80;99.90;;;20.20;70.21;98609.97;5190213;28;20299;-63
2022/08/06 05:52:21;;;;;;;2.90;2.70;;;19.40;99.90;;;20.51;67.91;98610.88;5201232;28;20220;-63
2022/08/06 05:55:01;;;;;;;2.92;2.72;;;19.70;99.90;;;20.94;69.06;98606.97;5202400;28;20203;-64
2022/08/06 05:57:41;;;;;;;3.45;2.90;;;20.00;99.90;;;20.88;65.45;98614.59;5197387;28;20231;-63
2022/08/06 06:00:20;;;;;;;2.90;2.70;;;19.90;99.90;;;21.03;67.73;98615.03;5196134;28;20229;-63
2022/08/06 06:03:16;;;;;;;2.58;2.38;;;20.00;99.90;;;21.19;64.90;98618.06;5202998;28;20217;-63
2022/08/06 06:06:04;;;;;;;2.95;2.40;;;20.10;99.90;;;21.31;65.62;98619.25;5200191;28;20199;-63
2022/08/06 06:08:50;;;;;;;2.85;2.65;;;20.20;99.90;;;21.46;66.42;98618.84;5196597;28;20194;-63
2022/08/06 06:11:32;;;;;;;3.00;2.75;;;20.30;99.90;;;21.75;65.41;98623.91;5199940;28;20193;-63
2022/08/06 06:14:38;;;;;;;3.65;2.70;;;20.50;99.90;;;21.90;63.37;98632.09;5203322;28;20201;-63
2022/08/06 06:17:37;;;;;;;2.58;2.38;;;20.70;99.90;;;22.10;61.90;98635.16;5196896;28;20202;-64
2022/08/06 06:20:32;;;;;;;2.83;2.55;;;20.70;99.90;;;22.28;61.72;98629.53;5198437;28;20761;-63
2022/08/06 06:23:32;;;;;;;2.92;2.60;;;20.80;99.90;;;22.79;60.96;98636.75;5197870;28;20312;-63
2022/08/06 06:26:18;;;;;;;2.40;2.20;;;21.20;99.90;;;23.01;59.11;98645.06;5209921;28;20197;-63
2022/08/06 06:29:15;;;;;;;4.15;2.78;;;21.50;99.90;;;23.44;58.51;98636.31;5206183;28;20221;-64
2022/08/06 06:32:14;;;;;;;2.63;2.42;;;21.70;99.90;;;23.59;58.15;98651.38;5201631;28;20277;-63
2022/08/06 06:35:18;;;;;;;2.60;2.40;;;21.80;99.90;;;24.12;53.39;98642.72;5200059;28;20344;-64
2022/08/06 06:38:13;;;;;;;3.10;2.65;;;22.50;98.50;;;24.14;53.40;98647.13;5197428;28;20255;-63
2022/08/06 06:40:57;;;;;;;3.65;2.60;;;22.70;97.40;;;23.83;51.89;98648.34;5195802;28;20675;-62
2022/08/06 06:43:47;;;;;;;2.63;2.40;;;22.30;96.10;;;23.38;53.53;98642.31;5200029;28;20741;-63
2022/08/06 06:46:32;;;;;;;3.15;2.20;;;22.00;96.70;;;23.39;55.16;98638.84;5196844;28;20585;-63
2022/08/06 06:49:18;;;;;;;3.60;2.22;;;22.10;97.90;;;23.81;54.47;98627.44;5191888;28;20201;-63
2022/08/06 06:52:19;;;;;;;3.45;2.60;;;22.50;96.90;;;23.91;53.01;98638.03;5190912;28;20269;-63
2022/08/06 06:55:09;;;;;;;3.50;2.50;;;22.50;96.00;;;23.86;51.76;98644.91;5197914;28;20195;-65
2022/08/06 06:58:04;;;;;;;3.75;2.65;;;22.50;95.70;;;23.43;51.35;98646.72;5204176;28;20572;-63
2022/08/06 07:00:43;;;;;;;3.53;2.70;;;22.40;94.40;;;23.20;53.26;98646.28;5196376;28;20843;-64
2022/08/06 07:03:21;;;;;;;2.63;2.42;;;21.90;95.90;;;23.31;54.22;98653.47;5196782;28;20233;-64
2022/08/06 07:06:17;;;;;;;3.17;2.75;;;22.10;97.10;;;23.13;51.88;98645.28;5193067;28;20216;-63
2022/08/06 07:09:15;;;;;;;2.67;2.40;;;22.30;94.30;;;23.46;54.69;98654.59;5199216;28;20206;-63
2022/08/06 07:12:10;;;;;;;5.07;2.90;;;22.10;97.10;;;23.58;50.88;98660.06;5201393;28;20222;-64
2022/08/06 07:14:56;;;;;;;3.38;3.08;;;22.40;93.90;;;23.22;51.75;98661.13;5201638;28;20275;-63
2022/08/06 07:17:35;;;;;;;3.45;2.85;;;22.20;93.90;;;23.54;51.96;98664.34;5194960;28;20212;-62
2022/08/06 07:20:26;;;;;;;4.22;2.50;;;22.40;94.60;;;23.88;50.76;98662.38;5198145;28;20259;-64
2022/08/06 07:23:04;;;;;;;2.95;2.50;;;22.70;93.80;;;24.22;49.93;98670.75;5199400;28;20229;-64
2022/08/06 07:25:59;;;;;;;2.80;2.60;;;23.20;92.80;;;24.13;50.60;98670.63;5196074;28;20202;-63
2022/08/06 07:28:33;;;;;;;3.20;2.70;;;23.00;93.00;;;23.89;50.69;98668.47;5197573;28;20292;-64
2022/08/06 07:31:09;;;;;;;3.75;2.50;;;22.70;93.20;;;24.28;50.93;98678.69;5192393;28;20204;-64
2022/08/06 07:33:45;;;;;;;3.80;2.67;;;23.00;93.70;;;24.01;50.86;98673.91;5197275;28;20589;-64
2022/08/06 07:36:38;;;;;;;3.42;2.70;;;22.80;93.20;;;24.10;52.75;98681.03;5194621;28;20209;-63
2022/08/06 07:39:30;;;;;;;3.28;2.95;;;22.90;94.60;;;23.94;50.19;98691.19;5195554;28;20686;-64
2022/08/06 07:42:12;;;;;;;2.65;2.45;;;22.70;92.80;;;23.80;49.55;98687.47;5198620;28;20697;-64
2022/08/06 07:44:49;;;;;;;3.20;2.90;;;22.70;92.30;;;23.57;48.90;98684.41;5193722;28;20205;-63
2022/08/06 07:47:40;;;;;;;3.08;2.78;;;22.50;91.80;;;23.68;49.32;98687.22;5199700;28;20224;-64
2022/08/06 07:50:28;;;;;;;3.35;2.70;;;22.50;91.80;;;23.75;49.64;98692.63;5190978;28;20201;-65
2022/08/06 07:53:02;;;;;;;2.85;2.65;;;22.40;92.30;;;23.65;49.02;98688.03;5197286;28;20330;-64
2022/08/06 07:55:37;;;;;;;3.58;2.78;;;22.40;92.10;;;23.37;49.42;98684.00;5197381;28;20206;-64
2022/08/06 07:58:14;;;;;;;2.83;2.53;;;22.20;92.10;;;22.92;50.33;98688.31;5203781;28;20613;-64
2022/08/06 08:00:49;;;;;;;2.83;2.63;;;21.80;92.10;;;22.86;50.57;98688.19;5195752;28;20237;-63
2022/08/06 08:06:32;;;;;;;3.63;2.78;;;22.10;93.80;;;23.34;50.42;98682.22;5196092;28;20301;-63
2022/08/06 08:09:16;;;;;;;3.38;2.42;;;22.40;92.10;;;22.96;51.40;98689.28;5194784;28;20206;-64
2022/08/06 08:12:02;;;;;;;4.38;2.85;;;22.10;92.40;;;22.77;50.92;98681.88;5200102;28;20221;-63
2022/08/06 08:14:56;;;;;;;3.78;2.42;;;22.00;92.00;;;22.75;51.54;98678.34;5198119;28;20211;-64
2022/08/06 08:17:35;;;;;;;2.72;2.53;;;21.90;92.50;;;22.58;52.94;98684.09;5201659;28;20284;-64
2022/08/06 08:20:12;;;;;;;2.88;2.60;;;21.60;93.10;;;22.56;51.55;98692.72;5203715;28;20221;-64
2022/08/06 08:22:52;;;;;;;3.15;2.50;;;21.50;92.80;;;22.42;53.34;98688.03;5205874;28;20225;-63
2022/08/06 08:25:25;;;;;;;2.40;2.20;;;21.60;93.60;;;22.84;52.44;98687.25;5202681;28;20665;-64
2022/08/06 08:28:15;;;;;;;2.25;2.05;;;21.80;93.00;;;22.96;51.72;98676.25;5195312;28;20665;-64
2022/08/06 08:30:49;;;;;;;2.50;2.40;;;22.10;92.70;;;23.41;51.76;98679.72;5205020;28;20560;-64
2022/08/06 08:33:23;;;;;;;2.38;2.17;;;22.60;93.00;;;23.38;47.51;98684.06;5207695;28;20729;-64
2022/08/06 08:36:01;;;;;;;2.15;1.95;;;22.70;90.00;;;23.66;46.94;98674.13;5200686;28;20705;-64
2022/08/06 08:38:35;;;;;;;2.25;1.90;;;23.00;88.20;;;23.76;45.95;98691.75;5204479;28;20210;-64
2022/08/06 08:41:16;;;;;;;2.03;1.75;;;23.00;86.20;;;23.43;45.66;98680.66;5202508;28;20208;-64
2022/08/06 08:44:01;;;;;;;1.90;1.80;;;22.50;86.80;;;23.32;45.56;98680.44;5189572;28;20250;-64
2022/08/06 08:46:40;;;;;;;2.58;1.90;;;22.70;85.20;;;23.59;46.11;98687.94;5205929;28;20204;-64
2022/08/06 08:49:35;;;;;;;2.25;1.80;;;22.90;85.80;;;23.74;46.22;98680.41;5200292;28;20209;-64
2022/08/06 08:52:16;;;;;;;3.38;1.73;;;23.00;86.70;;;23.74;45.91;98676.91;5201877;28;20229;-64
2022/08/06 08:54:57;;;;;;;2.95;1.73;;;23.00;86.50;;;23.86;44.14;98671.91;5202155;28;20208;-64
2022/08/06 08:57:33;;;;;;;1.70;1.60;;;23.20;82.80;;;24.20;44.12;98668.09;5196689;28;20201;-64
2022/08/06 09:00:26;;;;;;;2.35;1.73;;;23.50;83.60;;;24.49;43.12;98665.09;5201646;28;20228;-64
2022/08/06 09:03:00;;;;;;;2.33;1.88;;;23.90;80.50;;;24.56;42.00;98653.00;5197623;28;20408;-64
2022/08/06 09:05:36;;;;;;;2.25;1.88;;;24.00;79.10;;;24.73;41.11;98670.69;5210194;28;20652;-64
2022/08/06 09:08:20;;;;;;;2.20;1.60;;;24.00;78.00;;;24.61;42.17;98670.53;5200128;28;20201;-64
2022/08/06 09:11:14;;;;;;;1.73;1.63;;;23.90;79.50;;;24.24;43.05;98672.53;5201049;28;20224;-64
2022/08/06 09:14:09;;;;;;;1.80;1.55;;;23.60;80.00;;;24.24;42.58;98672.53;5205950;28;20224;-64
2022/08/06 09:16:42;;;;;;;3.30;1.70;;;23.60;79.90;;;24.39;41.86;98671.03;5208975;28;20201;-64
2022/08/06 09:19:22;;;;;;;1.60;1.50;;;23.80;78.80;;;24.79;43.20;98680.34;5204923;28;20244;-63
2022/08/06 09:22:10;;;;;;;2.50;1.60;;;24.20;81.00;;;24.79;39.88;98679.47;5203656;28;20238;-63
2022/08/06 09:24:46;;;;;;;1.63;1.52;;;24.30;76.70;;;24.70;41.06;98670.63;5200446;28;20735;-64
2022/08/06 09:27:19;;;;;;;2.20;1.80;;;24.10;76.80;;;23.99;40.90;98670.38;5200363;28;20197;-64
2022/08/06 09:30:18;;;;;;;2.42;1.52;;;23.50;76.20;;;24.49;41.57;98678.16;5199233;28;20205;-64
2022/08/06 09:33:03;;;;;;;2.10;1.63;;;23.90;77.20;;;24.64;40.30;98673.19;5202141;28;20276;-64
2022/08/06 09:36:03;;;;;;;1.98;1.52;;;24.10;75.50;;;24.42;40.56;98678.91;5211008;28;20201;-64
2022/08/06 09:38:48;;;;;;;2.03;1.65;;;23.70;76.10;;;24.67;39.30;98675.84;5199961;28;20201;-63
2022/08/06 09:41:27;;;;;;;2.85;1.80;;;24.00;74.50;;;24.72;39.33;98683.72;5191689;28;20207;-64
2022/08/06 09:44:11;;;;;;;2.00;1.80;;;24.10;73.90;;;24.88;38.54;98690.06;5200218;28;20304;-64
2022/08/06 09:47:06;;;;;;;2.65;1.92;;;24.20;73.10;;;25.05;38.19;98683.31;5204608;28;20709;-64
2022/08/06 09:49:48;;;;;;;3.72;1.70;;;24.50;71.90;;;25.03;39.39;98685.00;5200939;28;20264;-64
2022/08/06 09:52:33;;;;;;;2.38;1.67;;;24.50;72.90;;;24.48;38.64;98679.03;5200009;28;20592;-64
2022/08/06 09:55:08;;;;;;;2.65;1.65;;;24.00;71.90;;;24.36;39.12;98689.28;5205947;28;20323;-64
2022/08/06 09:57:50;;;;;;;1.52;1.42;;;23.80;72.60;;;24.37;37.17;98686.66;5200091;28;20198;-64
2022/08/06 10:00:28;;;;;;;3.88;1.80;;;23.70;71.40;;;24.46;39.08;98683.34;5208129;28;20202;-64
2022/08/06 10:03:04;;;;;;;2.10;1.77;;;23.90;73.10;;;24.57;38.61;98683.50;5200841;28;20348;-64
2022/08/06 10:06:06;;;;;;;2.42;1.60;;;24.10;71.90;;;24.61;38.86;98685.31;5206008;28;20213;-64
2022/08/06 10:08:47;;;;;;;1.77;1.67;;;24.10;72.50;;;24.52;39.11;98679.94;5202328;28;20580;-64
2022/08/06 10:11:36;;;;;;;4.40;1.70;;;24.00;72.60;;;24.96;38.16;98680.56;5202969;28;20256;-64
2022/08/06 10:14:25;;;;;;;1.70;1.60;;;24.60;70.50;;;25.03;39.28;98685.00;5202195;28;20206;-64
2022/08/06 10:17:06;;;;;;;2.03;1.55;;;24.60;72.70;;;25.18;38.39;98684.34;5205993;28;20748;-64
2022/08/06 10:19:43;;;;;;;1.60;1.40;;;24.70;71.60;;;25.32;37.27;98695.88;5196618;28;20234;-64
2022/08/06 10:22:24;;;;;;;1.40;1.30;;;24.90;69.70;;;25.39;36.20;98694.22;5197501;28;20233;-63
2022/08/06 10:25:03;;;;;;;1.92;1.50;;;24.80;67.90;;;25.15;37.83;98679.09;5200337;28;20213;-64
2022/08/06 10:27:45;;;;;;;1.58;1.45;;;24.50;70.30;;;25.01;37.46;98681.53;5199617;28;20302;-63
2022/08/06 10:30:27;;;;;;;1.60;1.50;;;24.40;70.80;;;25.06;39.08;98678.94;5198356;28;20597;-63
2022/08/06 10:33:11;;;;;;;3.28;1.70;;;24.50;71.90;;;25.28;37.40;98682.75;5197129;28;20638;-64
2022/08/06 10:36:02;;;;;;;2.00;1.80;;;24.70;69.80;;;25.46;36.67;98675.06;5193968;28;20203;-64
2022/08/06 10:38:39;;;;;;;3.45;1.60;;;24.80;69.80;;;25.40;37.93;98675.03;5199836;28;20287;-64
2022/08/06 10:41:26;;;;;;;3.70;1.90;;;24.90;70.70;;;25.56;37.77;98679.56;5201608;28;20492;-64
2022/08/06 10:44:19;;;;;;;1.70;1.60;;;25.10;70.50;;;25.66;38.67;98677.03;5197464;28;20215;-64
2022/08/06 10:47:03;;;;;;;1.75;1.65;;;25.10;72.40;;;26.04;36.87;98674.78;5195690;28;20598;-65
2022/08/06 10:49:38;;;;;;;4.18;2.00;;;25.50;68.90;;;26.13;36.28;98674.03;5192976;28;20217;-64
2022/08/06 10:52:32;;;;;;;1.70;1.60;;;25.50;68.30;;;26.05;36.23;98674.81;5196410;28;20593;-64
2022/08/06 10:55:08;;;;;;;2.80;1.75;;;25.40;68.10;;;26.03;36.64;98668.69;5193018;28;20301;-64
2022/08/06 10:57:44;;;;;;;1.77;1.67;;;25.50;68.70;;;25.84;37.02;98666.78;5208028;28;20567;-64
2022/08/06 11:00:17;;;;;;;1.50;1.33;;;25.20;69.80;;;26.01;37.45;98665.19;5197166;28;20260;-64
2022/08/06 11:03:19;;;;;;;2.60;1.77;;;25.40;69.40;;;25.85;36.01;98663.28;5201107;28;20221;-64
2022/08/06 11:06:03;;;;;;;1.90;1.67;;;25.30;67.20;;;26.02;36.20;98656.44;5199960;28;20232;-64
2022/08/06 11:08:58;;;;;;;2.25;1.60;;;25.40;68.30;;;25.92;37.15;98656.34;5185566;28;20202;-64
2022/08/06 11:11:47;;;;;;;1.75;1.65;;;25.30;69.70;;;25.58;37.45;98659.53;5193981;28;20201;-64
2022/08/06 11:14:39;;;;;;;2.90;1.70;;;25.00;69.40;;;25.54;36.84;98662.09;5190206;28;20201;-64
2022/08/06 11:17:13;;;;;;;2.42;1.60;;;24.80;68.70;;;25.60;37.28;98655.16;5207284;28;20206;-64
2022/08/06 11:19:51;;;;;;;3.33;1.98;;;24.80;69.60;;;25.64;37.14;98656.09;5194260;28;20196;-64
2022/08/06 11:22:38;;;;;;;1.90;1.73;;;25.00;68.50;;;25.88;37.79;98647.59;5194798;28;20779;-64
2022/08/06 11:25:40;;;;;;;2.38;1.80;;;25.20;70.90;;;25.96;37.76;98648.53;5194194;28;20223;-63
2022/08/06 11:28:14;;;;;;;2.78;1.75;;;25.20;69.60;;;25.78;36.70;98643.09;5199019;28;20268;-64
2022/08/06 11:30:50;;;;;;;2.40;1.60;;;25.10;68.70;;;25.84;36.78;98640.59;5194064;28;20281;-63